Time;durP1;ratioP1;P1;durP2;ratioP2;P2;SDS_P1;SDS_P2;PMS_P1;PMS_P2;Temp;Humidity;BMP_temperature;BMP_pressure;BME280_temperature;BME280_humidity;BME280_pressure;Samples;Min_cycle;Max_cycle;Signal;HPM_P1;HPM_P2
2023/09/03 00:00:32;;;;;;;3.80;3.60;;;20.30;99.90;;;;;;5073166;28;20176;-80
2023/09/03 00:02:58;;;;;;;3.70;3.50;;;20.30;99.90;;;;;;5073453;28;20175;-80
2023/09/03 00:05:23;;;;;;;3.53;3.23;;;20.30;99.90;;;;;;5080008;28;20238;-81
2023/09/03 00:07:51;;;;;;;3.70;3.50;;;20.30;99.90;;;;;;5087760;28;20274;-79
2023/09/03 00:10:17;;;;;;;3.37;3.20;;;20.20;99.90;;;;;;5076047;28;20183;-80
2023/09/03 00:12:43;;;;;;;3.20;3.00;;;20.20;99.90;;;;;;5090732;28;20573;-80
2023/09/03 00:15:09;;;;;;;3.53;3.33;;;20.20;99.90;;;;;;5087643;28;20175;-80
2023/09/03 00:17:35;;;;;;;3.70;3.50;;;20.10;99.90;;;;;;5076587;28;20227;-79
2023/09/03 00:20:00;;;;;;;3.40;3.13;;;20.10;99.90;;;;;;5077237;28;20377;-81
2023/09/03 00:22:26;;;;;;;3.20;3.10;;;20.00;99.90;;;;;;5059977;28;20171;-81
2023/09/03 00:24:52;;;;;;;3.40;3.17;;;20.00;99.90;;;;;;5078092;28;20182;-78
2023/09/03 00:27:18;;;;;;;3.30;3.03;;;20.00;99.90;;;;;;5078539;28;20171;-80
2023/09/03 00:29:45;;;;;;;4.07;3.30;;;20.00;99.90;;;;;;5077432;28;20179;-80
2023/09/03 00:32:10;;;;;;;4.10;3.07;;;20.00;99.90;;;;;;5076919;28;20182;-83
2023/09/03 00:34:36;;;;;;;3.50;3.30;;;20.00;99.90;;;;;;5076453;28;20175;-77
2023/09/03 00:37:02;;;;;;;3.77;3.47;;;20.00;99.90;;;;;;5087470;28;20500;-81
2023/09/03 00:39:28;;;;;;;3.60;3.30;;;20.00;99.90;;;;;;5078865;28;20238;-79
2023/09/03 00:41:53;;;;;;;3.57;3.27;;;20.00;99.90;;;;;;5077525;28;20167;-80
2023/09/03 00:44:20;;;;;;;4.60;3.43;;;19.90;99.90;;;;;;5076413;28;20178;-79
2023/09/03 00:46:45;;;;;;;3.60;3.40;;;19.90;99.90;;;;;;5076776;28;20233;-79
2023/09/03 00:49:21;;;;;;;3.97;3.23;;;19.90;99.90;;;;;;5076302;28;20183;-80
2023/09/03 00:51:47;;;;;;;3.70;3.50;;;19.90;99.90;;;;;;5075936;28;20163;-79
2023/09/03 00:54:13;;;;;;;3.40;3.20;;;19.80;99.90;;;;;;5076272;28;20195;-77
2023/09/03 00:56:41;;;;;;;3.87;3.47;;;19.80;99.90;;;;;;5058880;28;20214;-78
2023/09/03 00:59:08;;;;;;;3.33;3.10;;;19.80;99.90;;;;;;5075939;28;20234;-79
2023/09/03 01:01:36;;;;;;;3.40;3.10;;;19.80;99.90;;;;;;5076698;28;20258;-81
2023/09/03 01:04:01;;;;;;;4.20;3.13;;;19.80;99.90;;;;;;5077397;28;20225;-81
2023/09/03 01:06:27;;;;;;;3.30;3.10;;;19.70;99.90;;;;;;5057876;28;20183;-79
2023/09/03 01:08:53;;;;;;;3.33;3.13;;;19.70;99.90;;;;;;5076919;28;20167;-80
2023/09/03 01:11:40;;;;;;;3.30;3.10;;;19.70;99.90;;;;;;5093233;28;20277;-79
2023/09/03 01:14:26;;;;;;;3.10;3.00;;;19.70;99.90;;;;;;5076223;28;20197;-79
2023/09/03 01:17:01;;;;;;;3.00;2.90;;;19.60;99.90;;;;;;5035520;28;20601;-77
2023/09/03 01:19:53;;;;;;;3.30;3.10;;;19.50;99.90;;;;;;5055877;28;20226;-79
2023/09/03 01:22:47;;;;;;;3.60;3.30;;;19.40;99.90;;;;;;5061110;28;20207;-80
2023/09/03 01:26:00;;;;;;;3.50;3.30;;;19.40;99.90;;;;;;5056207;28;20250;-80
2023/09/03 01:28:30;;;;;;;3.30;3.10;;;19.40;99.90;;;;;;4960387;29;20191;-80
2023/09/03 01:31:02;;;;;;;3.53;3.30;;;19.30;99.90;;;;;;4964508;29;20223;-79
2023/09/03 01:33:29;;;;;;;3.33;3.13;;;19.30;99.90;;;;;;5008824;28;20195;-78
2023/09/03 01:35:57;;;;;;;3.17;2.97;;;19.30;99.90;;;;;;5055517;28;20186;-82
2023/09/03 01:38:23;;;;;;;3.50;3.30;;;19.30;99.90;;;;;;5055271;28;20214;-80
2023/09/03 01:40:50;;;;;;;3.53;3.33;;;19.20;99.90;;;;;;5055538;28;20180;-81
2023/09/03 01:43:16;;;;;;;3.50;3.30;;;19.20;99.90;;;;;;5055580;28;20183;-79
2023/09/03 01:45:54;;;;;;;3.83;3.57;;;19.30;99.90;;;;;;5055341;28;20172;-79
2023/09/03 01:48:39;;;;;;;3.87;3.53;;;19.30;99.90;;;;;;5055509;28;20164;-80
2023/09/03 01:51:10;;;;;;;3.60;3.30;;;19.20;99.90;;;;;;5055069;28;20587;-80
2023/09/03 01:54:04;;;;;;;3.43;3.20;;;19.20;99.90;;;;;;5040433;28;20514;-80
2023/09/03 01:56:34;;;;;;;3.27;3.07;;;19.20;99.90;;;;;;5059747;28;20172;-79
2023/09/03 01:59:05;;;;;;;3.30;3.10;;;19.20;99.90;;;;;;5059030;28;20199;-80
2023/09/03 02:01:32;;;;;;;3.47;3.20;;;19.20;99.90;;;;;;5055062;28;20160;-80
2023/09/03 02:03:59;;;;;;;3.00;2.90;;;19.20;99.90;;;;;;5037600;28;20176;-81
2023/09/03 02:06:25;;;;;;;3.33;3.10;;;19.20;99.90;;;;;;5055037;28;20186;-82
2023/09/03 02:08:50;;;;;;;3.40;3.20;;;19.20;99.90;;;;;;5059634;28;20172;-79
2023/09/03 02:11:16;;;;;;;4.77;3.20;;;19.20;99.90;;;;;;5074893;28;20152;-79
2023/09/03 02:13:43;;;;;;;3.00;2.80;;;19.20;99.90;;;;;;5071975;28;20183;-78
2023/09/03 02:16:08;;;;;;;3.30;3.10;;;19.20;99.90;;;;;;5064370;28;20191;-76
2023/09/03 02:18:34;;;;;;;2.97;2.87;;;19.20;99.90;;;;;;5084184;28;20246;-78
2023/09/03 02:21:00;;;;;;;3.70;3.33;;;19.10;99.90;;;;;;5081909;28;20202;-80
2023/09/03 02:23:25;;;;;;;3.50;3.30;;;19.10;99.90;;;;;;5096003;28;20183;-80
2023/09/03 02:26:00;;;;;;;3.00;2.90;;;19.10;99.90;;;;;;5097295;28;20175;-75
2023/09/03 02:28:26;;;;;;;3.33;3.13;;;19.10;99.90;;;;;;5076499;28;20185;-78
2023/09/03 02:30:52;;;;;;;3.30;3.03;;;19.10;99.90;;;;;;5088233;28;20175;-81
2023/09/03 02:33:17;;;;;;;3.50;3.33;;;19.10;99.90;;;;;;5075601;28;20535;-79
2023/09/03 02:35:43;;;;;;;3.43;3.23;;;19.10;99.90;;;;;;5075932;28;20688;-81
2023/09/03 02:38:12;;;;;;;2.90;2.80;;;19.10;99.90;;;;;;5076925;28;20206;-82
2023/09/03 02:40:37;;;;;;;3.43;3.23;;;19.10;99.90;;;;;;5074837;28;20179;-80
2023/09/03 02:43:04;;;;;;;3.50;3.23;;;19.00;99.90;;;;;;5074810;28;20263;-79
2023/09/03 02:45:30;;;;;;;3.40;3.20;;;19.00;99.90;;;;;;5057998;28;20178;-81
2023/09/03 02:47:56;;;;;;;3.77;3.47;;;19.00;99.90;;;;;;5074595;28;20189;-81
2023/09/03 02:50:21;;;;;;;3.20;3.10;;;19.00;99.90;;;;;;5093085;28;20175;-79
2023/09/03 02:52:48;;;;;;;4.17;3.23;;;19.00;99.90;;;;;;5092687;28;20187;-79
2023/09/03 02:55:14;;;;;;;3.67;3.33;;;18.90;99.90;;;;;;5077531;28;20168;-78
2023/09/03 02:57:40;;;;;;;3.87;3.60;;;18.90;99.90;;;;;;5074313;28;20229;-76
2023/09/03 03:00:06;;;;;;;3.10;3.00;;;18.90;99.90;;;;;;5096912;28;20237;-78
2023/09/03 03:02:33;;;;;;;3.70;3.40;;;18.90;99.90;;;;;;5056826;28;20660;-79
2023/09/03 03:04:58;;;;;;;3.77;3.47;;;18.90;99.90;;;;;;5055844;28;20540;-78
2023/09/03 03:07:26;;;;;;;3.77;3.53;;;18.90;99.90;;;;;;5073647;28;20163;-80
2023/09/03 03:09:52;;;;;;;3.37;3.17;;;18.90;99.90;;;;;;5073824;28;20170;-79
2023/09/03 03:12:19;;;;;;;3.57;3.07;;;18.90;99.90;;;;;;5055780;28;20178;-79
2023/09/03 03:14:46;;;;;;;3.63;3.37;;;18.80;99.90;;;;;;5073491;28;20175;-80
2023/09/03 03:17:12;;;;;;;3.60;3.37;;;18.80;99.90;;;;;;5073408;28;20219;-80
2023/09/03 03:19:37;;;;;;;3.77;3.47;;;18.80;99.90;;;;;;5073486;28;20692;-80
2023/09/03 03:22:03;;;;;;;5.27;3.33;;;18.80;99.90;;;;;;5073736;28;20166;-78
2023/09/03 03:24:29;;;;;;;3.20;3.00;;;18.80;99.90;;;;;;5073736;28;20163;-78
2023/09/03 03:26:55;;;;;;;3.60;3.40;;;18.80;99.90;;;;;;5073671;28;20174;-81
2023/09/03 03:29:21;;;;;;;3.80;3.30;;;18.70;99.90;;;;;;5073503;28;20167;-79
2023/09/03 03:31:47;;;;;;;3.73;3.53;;;18.70;99.90;;;;;;5073435;28;20203;-79
2023/09/03 03:34:12;;;;;;;3.93;3.63;;;18.70;99.90;;;;;;5073552;28;20574;-79
2023/09/03 03:36:38;;;;;;;5.30;3.63;;;18.70;99.90;;;;;;5073787;28;20175;-79
2023/09/03 03:39:04;;;;;;;3.90;3.60;;;18.80;99.90;;;;;;5062228;28;20309;-81
2023/09/03 03:41:30;;;;;;;4.23;3.30;;;18.80;99.90;;;;;;5086326;28;20171;-81
2023/09/03 03:43:56;;;;;;;3.70;3.50;;;18.80;99.90;;;;;;5074219;28;20179;-80
2023/09/03 03:46:21;;;;;;;3.70;3.47;;;18.80;99.90;;;;;;5073687;28;20175;-80
2023/09/03 03:48:48;;;;;;;3.60;3.40;;;18.90;99.90;;;;;;5073702;28;20225;-79
2023/09/03 03:51:14;;;;;;;3.93;3.43;;;18.80;99.90;;;;;;5055695;28;20190;-80
2023/09/03 03:53:40;;;;;;;4.20;3.90;;;18.70;99.90;;;;;;5073255;28;20626;-79
2023/09/03 03:56:08;;;;;;;3.43;3.23;;;18.70;99.90;;;;;;5073512;28;20174;-77
2023/09/03 03:58:36;;;;;;;3.77;3.57;;;18.70;99.90;;;;;;5072952;28;20210;-79
2023/09/03 04:01:15;;;;;;;3.60;3.40;;;18.60;99.90;;;;;;5073114;28;20166;-80
2023/09/03 04:03:41;;;;;;;5.87;3.60;;;18.60;99.90;;;;;;5073692;28;20620;-77
2023/09/03 04:06:07;;;;;;;4.00;3.70;;;18.60;99.90;;;;;;5073344;28;20206;-78
2023/09/03 04:08:35;;;;;;;3.87;3.67;;;18.60;99.90;;;;;;5073630;28;20190;-76
2023/09/03 04:11:06;;;;;;;4.23;3.93;;;18.60;99.90;;;;;;5073824;28;20242;-78
2023/09/03 04:13:32;;;;;;;4.23;3.83;;;18.60;99.90;;;;;;5081470;28;20265;-78
2023/09/03 04:15:59;;;;;;;3.80;3.47;;;18.60;99.90;;;;;;5089223;28;20171;-79
2023/09/03 04:18:25;;;;;;;4.43;4.07;;;18.60;99.90;;;;;;5094561;28;20219;-80
2023/09/03 04:20:53;;;;;;;4.20;3.80;;;18.60;99.90;;;;;;5075481;28;20167;-81
2023/09/03 04:23:19;;;;;;;4.27;4.03;;;18.50;99.90;;;;;;5073946;28;20615;-80
2023/09/03 04:25:44;;;;;;;4.00;3.80;;;18.50;99.90;;;;;;5092773;28;20172;-76
2023/09/03 04:28:10;;;;;;;4.97;4.50;;;18.60;99.90;;;;;;5074106;28;20179;-79
2023/09/03 04:30:37;;;;;;;4.20;3.90;;;18.60;99.90;;;;;;5072698;28;20182;-80
2023/09/03 04:33:04;;;;;;;4.77;4.47;;;18.60;99.90;;;;;;5072528;28;20175;-79
2023/09/03 04:35:30;;;;;;;4.40;4.00;;;18.60;99.90;;;;;;5076737;28;20183;-78
2023/09/03 04:37:56;;;;;;;4.37;3.97;;;18.60;99.90;;;;;;5092743;28;20190;-79
2023/09/03 04:40:23;;;;;;;4.87;4.47;;;18.60;99.90;;;;;;5072780;28;20175;-79
2023/09/03 04:42:49;;;;;;;4.53;4.23;;;18.60;99.90;;;;;;5072637;28;20180;-79
2023/09/03 04:45:15;;;;;;;4.47;4.07;;;18.60;99.90;;;;;;5072711;28;20183;-79
2023/09/03 04:47:41;;;;;;;4.50;4.10;;;18.60;99.90;;;;;;5072697;28;20175;-81
2023/09/03 04:50:08;;;;;;;4.70;4.40;;;18.60;99.90;;;;;;5054750;28;20179;-78
2023/09/03 04:52:37;;;;;;;4.57;4.27;;;18.60;99.90;;;;;;5054834;28;20589;-81
2023/09/03 04:55:03;;;;;;;4.77;4.30;;;18.60;99.90;;;;;;5072810;28;20183;-78
2023/09/03 04:57:29;;;;;;;3.83;3.63;;;18.60;99.90;;;;;;5057974;28;20262;-79
2023/09/03 04:59:54;;;;;;;4.60;4.30;;;18.70;99.90;;;;;;5075700;28;20363;-80
2023/09/03 05:02:21;;;;;;;4.43;4.13;;;18.70;99.90;;;;;;5076035;28;20178;-79
2023/09/03 05:04:46;;;;;;;4.30;4.00;;;18.70;99.90;;;;;;5076478;28;20634;-78
2023/09/03 05:07:12;;;;;;;4.00;3.70;;;18.70;99.90;;;;;;5076149;28;20202;-79
2023/09/03 05:09:38;;;;;;;4.20;3.80;;;18.70;99.90;;;;;;5057872;28;20176;-80
2023/09/03 05:12:04;;;;;;;5.73;4.73;;;18.70;99.90;;;;;;5041063;28;20211;-78
2023/09/03 05:14:29;;;;;;;4.63;4.33;;;18.60;99.90;;;;;;5075992;28;20168;-78
2023/09/03 05:16:55;;;;;;;4.27;3.97;;;18.70;99.90;;;;;;5075654;28;20226;-80
2023/09/03 05:19:21;;;;;;;4.20;3.90;;;18.70;99.90;;;;;;5075873;28;20256;-80
2023/09/03 05:21:46;;;;;;;5.37;3.87;;;18.70;99.90;;;;;;5083207;28;20175;-81
2023/09/03 05:24:12;;;;;;;4.43;4.03;;;18.70;99.90;;;;;;5092139;28;20236;-81
2023/09/03 05:26:38;;;;;;;4.93;4.53;;;18.70;99.90;;;;;;5077412;28;20171;-80
2023/09/03 05:29:04;;;;;;;4.83;4.53;;;18.70;99.90;;;;;;5075567;28;20543;-79
2023/09/03 05:31:30;;;;;;;4.27;3.97;;;18.70;99.90;;;;;;5075342;28;20174;-78
2023/09/03 05:34:00;;;;;;;4.90;4.50;;;18.70;99.90;;;;;;5077001;28;20252;-82
2023/09/03 05:36:26;;;;;;;4.40;4.10;;;18.80;99.90;;;;;;5090558;28;20179;-79
2023/09/03 05:38:52;;;;;;;4.80;4.40;;;18.80;99.90;;;;;;5075287;28;20204;-78
2023/09/03 05:41:18;;;;;;;5.03;4.57;;;18.80;99.90;;;;;;5075397;28;20531;-79
2023/09/03 05:43:44;;;;;;;4.70;4.40;;;18.80;99.90;;;;;;5075167;28;20179;-80
2023/09/03 05:46:09;;;;;;;4.77;4.53;;;19.00;99.90;;;;;;5075631;28;20174;-80
2023/09/03 05:48:35;;;;;;;5.33;4.93;;;19.00;99.90;;;;;;5076061;28;20191;-79
2023/09/03 05:51:05;;;;;;;5.43;5.00;;;19.10;99.90;;;;;;5076049;28;20183;-80
2023/09/03 05:53:32;;;;;;;5.20;4.70;;;19.20;99.90;;;;;;5075417;28;20211;-79
2023/09/03 05:56:11;;;;;;;4.70;4.40;;;19.40;99.90;;;;;;5075276;28;20171;-80
2023/09/03 05:58:38;;;;;;;5.20;4.80;;;19.50;99.90;;;;;;5075259;28;20220;-80
2023/09/03 06:01:08;;;;;;;5.00;4.70;;;19.50;99.90;;;;;;5076084;28;20635;-79
2023/09/03 06:03:35;;;;;;;5.53;5.13;;;19.50;99.90;;;;;;5086432;28;20170;-80
2023/09/03 06:06:05;;;;;;;4.57;4.27;;;19.50;99.90;;;;;;5080971;28;20167;-76
2023/09/03 06:08:32;;;;;;;5.67;5.27;;;19.60;99.90;;;;;;5092394;28;20236;-80
2023/09/03 06:10:59;;;;;;;5.20;4.37;;;19.70;99.90;;;;;;5087097;28;20171;-79
2023/09/03 06:13:29;;;;;;;5.17;4.77;;;19.70;99.90;;;;;;5086039;28;20198;-80
2023/09/03 06:15:55;;;;;;;4.83;4.23;;;19.80;99.90;;;;;;5087038;28;20186;-80
2023/09/03 06:18:21;;;;;;;4.77;4.47;;;19.90;99.90;;;;;;5057770;28;20227;-81
2023/09/03 06:20:46;;;;;;;5.00;4.60;;;19.90;99.90;;;;;;5057848;28;20183;-82
2023/09/03 06:23:15;;;;;;;5.67;4.47;;;20.00;99.90;;;;;;5059713;28;20290;-81
2023/09/03 06:25:42;;;;;;;5.27;4.87;;;20.10;99.90;;;;;;5054576;28;20195;-78
2023/09/03 06:28:09;;;;;;;4.70;4.40;;;20.20;99.90;;;;;;5054602;28;20270;-81
2023/09/03 06:30:35;;;;;;;5.80;5.17;;;20.30;99.90;;;;;;5054205;28;20195;-80
2023/09/03 06:33:00;;;;;;;4.90;4.50;;;20.40;99.90;;;;;;5054449;28;20632;-79
2023/09/03 06:35:26;;;;;;;4.73;4.40;;;20.40;99.90;;;;;;5054692;28;20639;-80
2023/09/03 06:37:52;;;;;;;6.37;5.87;;;20.50;99.90;;;;;;5054051;28;20203;-80
2023/09/03 06:40:18;;;;;;;5.07;4.57;;;20.60;99.90;;;;;;5054925;28;20275;-80
2023/09/03 06:42:43;;;;;;;4.77;4.43;;;20.70;99.90;;;;;;5055688;28;20164;-80
2023/09/03 06:45:10;;;;;;;5.10;4.70;;;20.60;99.90;;;;;;5053959;28;20255;-80
2023/09/03 06:47:35;;;;;;;4.93;4.53;;;20.70;99.90;;;;;;5053945;28;20184;-79
2023/09/03 06:50:01;;;;;;;4.57;4.20;;;20.80;99.90;;;;;;5036160;28;20190;-79
2023/09/03 06:52:27;;;;;;;4.80;4.43;;;20.90;99.90;;;;;;5054158;28;20163;-79
2023/09/03 06:54:53;;;;;;;5.37;4.13;;;21.00;99.90;;;;;;5054364;28;20207;-79
2023/09/03 06:57:20;;;;;;;5.20;4.70;;;21.10;99.90;;;;;;5068004;28;20175;-80
2023/09/03 06:59:45;;;;;;;5.10;4.80;;;21.20;99.90;;;;;;5055042;28;20886;-80
2023/09/03 07:02:12;;;;;;;4.93;4.60;;;21.30;99.90;;;;;;5053669;28;20176;-81
2023/09/03 07:04:38;;;;;;;5.20;4.80;;;21.40;99.90;;;;;;5053976;28;20619;-77
2023/09/03 07:07:04;;;;;;;4.70;4.40;;;21.50;99.90;;;;;;5035719;28;20191;-79
2023/09/03 07:09:31;;;;;;;4.67;4.37;;;21.50;99.90;;;;;;5053944;28;20172;-80
2023/09/03 07:11:57;;;;;;;4.50;4.20;;;21.60;99.90;;;;;;5053939;28;20284;-80
2023/09/03 07:14:22;;;;;;;4.87;4.47;;;21.60;99.90;;;;;;5035665;28;20175;-78
2023/09/03 07:16:48;;;;;;;4.70;4.40;;;21.70;99.90;;;;;;5060844;28;20285;-77
2023/09/03 07:19:15;;;;;;;4.83;4.43;;;21.80;99.90;;;;;;5072852;28;20206;-80
2023/09/03 07:21:40;;;;;;;6.40;4.80;;;21.90;99.90;;;;;;5074349;28;20203;-83
2023/09/03 07:24:06;;;;;;;4.80;4.50;;;21.90;99.90;;;;;;5076155;28;20541;-82
2023/09/03 07:26:32;;;;;;;5.97;4.80;;;22.00;99.90;;;;;;5075085;28;20217;-76
2023/09/03 07:28:57;;;;;;;5.10;4.70;;;22.00;99.90;;;;;;5073648;28;20179;-79
2023/09/03 07:31:23;;;;;;;5.27;4.87;;;22.10;99.90;;;;;;5074269;28;20186;-80
2023/09/03 07:33:49;;;;;;;5.10;4.67;;;22.10;99.90;;;;;;5073811;28;20173;-78
2023/09/03 07:36:15;;;;;;;5.33;4.83;;;22.20;99.90;;;;;;5074066;28;20203;-82
2023/09/03 07:38:40;;;;;;;4.80;4.40;;;22.30;99.90;;;;;;5075657;28;20202;-79
2023/09/03 07:41:06;;;;;;;4.70;4.30;;;22.40;99.90;;;;;;5090737;28;20183;-77
2023/09/03 07:43:33;;;;;;;4.80;4.45;;;22.50;99.90;;;;;;5068615;28;20183;-81
2023/09/03 07:45:59;;;;;;;4.23;3.93;;;22.50;99.90;;;;;;5056015;28;20509;-82
2023/09/03 07:48:25;;;;;;;5.63;4.97;;;22.60;99.90;;;;;;5073784;28;20216;-81
2023/09/03 07:50:52;;;;;;;4.65;4.35;;;22.80;99.90;;;;;;5065520;28;20175;-79
2023/09/03 07:53:17;;;;;;;4.72;4.30;;;22.80;99.90;;;;;;5086567;28;20209;-82
2023/09/03 07:55:44;;;;;;;4.63;4.33;;;22.90;99.90;;;;;;5073670;28;20183;-80
2023/09/03 07:58:10;;;;;;;4.63;4.32;;;22.90;99.90;;;;;;5080678;28;20159;-81
2023/09/03 08:00:38;;;;;;;4.70;4.30;;;22.90;99.90;;;;;;5096566;28;20217;-79
2023/09/03 08:03:04;;;;;;;4.82;4.43;;;23.10;99.90;;;;;;5077939;28;20703;-80
2023/09/03 08:05:30;;;;;;;4.93;4.53;;;23.10;99.90;;;;;;5073160;28;20250;-80
2023/09/03 08:07:56;;;;;;;4.88;4.55;;;23.10;99.90;;;;;;5054974;28;20236;-80
2023/09/03 08:10:21;;;;;;;4.80;4.50;;;23.00;99.90;;;;;;5073273;28;20654;-79
2023/09/03 08:12:47;;;;;;;4.53;4.22;;;23.10;99.90;;;;;;5074173;28;20239;-80
2023/09/03 08:15:14;;;;;;;4.93;4.63;;;23.20;99.90;;;;;;5073652;28;20724;-79
2023/09/03 08:17:39;;;;;;;5.20;4.80;;;23.30;99.90;;;;;;5072679;28;20218;-79
2023/09/03 08:20:06;;;;;;;5.22;4.28;;;23.30;99.90;;;;;;5086860;28;20234;-80
2023/09/03 08:22:31;;;;;;;4.30;3.95;;;23.30;99.90;;;;;;5057145;28;20182;-81
2023/09/03 08:24:57;;;;;;;5.05;4.65;;;23.40;99.90;;;;;;5055244;28;20178;-82
2023/09/03 08:27:23;;;;;;;4.63;4.22;;;23.60;99.90;;;;;;5073134;28;20171;-83
2023/09/03 08:29:49;;;;;;;4.65;4.32;;;23.70;99.90;;;;;;5073117;28;20180;-82
2023/09/03 08:32:15;;;;;;;4.65;4.25;;;23.60;99.90;;;;;;5076765;28;20159;-81
2023/09/03 08:34:40;;;;;;;4.68;4.38;;;23.50;99.90;;;;;;5076577;28;20245;-81
2023/09/03 08:37:06;;;;;;;6.25;3.92;;;23.70;99.90;;;;;;5076501;28;20221;-81
2023/09/03 08:39:32;;;;;;;4.20;3.90;;;23.70;99.90;;;;;;5058754;28;20207;-80
2023/09/03 08:41:58;;;;;;;4.45;3.80;;;23.60;99.90;;;;;;5076488;28;20167;-80
2023/09/03 08:44:39;;;;;;;3.70;3.50;;;23.50;99.90;;;;;;5076468;28;20229;-82
2023/09/03 08:47:08;;;;;;;4.00;3.78;;;23.60;99.90;;;;;;5076245;28;20183;-79
2023/09/03 08:49:35;;;;;;;3.65;3.45;;;23.80;99.90;;;;;;5081064;28;20179;-77
2023/09/03 08:52:01;;;;;;;5.22;3.20;;;23.80;99.90;;;;;;5056686;28;20236;-82
2023/09/03 08:54:27;;;;;;;3.25;3.05;;;23.90;99.90;;;;;;5077969;28;20163;-77
2023/09/03 08:56:53;;;;;;;3.85;3.55;;;24.00;99.90;;;;;;5090165;28;20167;-81
2023/09/03 08:59:19;;;;;;;4.30;3.92;;;24.00;99.90;;;;;;5080770;28;20286;-85
2023/09/03 09:01:48;;;;;;;3.10;2.90;;;24.10;99.90;;;;;;5084185;28;20652;-82
2023/09/03 09:04:14;;;;;;;5.20;4.78;;;24.30;99.90;;;;;;5079468;28;20176;-82
2023/09/03 09:06:43;;;;;;;3.17;2.90;;;24.60;99.90;;;;;;5076729;28;20235;-80
2023/09/03 09:09:10;;;;;;;3.47;3.20;;;24.70;99.90;;;;;;5075845;28;20175;-81
2023/09/03 09:11:44;;;;;;;3.30;3.10;;;24.90;99.90;;;;;;5075883;28;20171;-80
2023/09/03 09:14:33;;;;;;;3.53;3.33;;;24.90;99.90;;;;;;5075684;28;20170;-79
2023/09/03 09:16:58;;;;;;;3.08;2.88;;;25.00;99.90;;;;;;5084865;28;20211;-79
2023/09/03 09:19:24;;;;;;;3.00;2.85;;;25.00;99.90;;;;;;5087716;28;20228;-80
2023/09/03 09:21:51;;;;;;;2.92;2.65;;;25.10;99.90;;;;;;5077391;28;20163;-79
2023/09/03 09:24:17;;;;;;;3.15;2.95;;;25.10;99.90;;;;;;5058235;28;20175;-83
2023/09/03 09:26:43;;;;;;;2.80;2.70;;;25.10;99.90;;;;;;5077837;28;20530;-77
2023/09/03 09:29:09;;;;;;;3.00;2.70;;;25.10;99.90;;;;;;5092244;28;20175;-80
2023/09/03 09:31:35;;;;;;;2.65;2.45;;;24.90;99.90;;;;;;5079239;28;20186;-80
2023/09/03 09:34:09;;;;;;;3.42;2.88;;;24.90;99.90;;;;;;5076044;28;20207;-80
2023/09/03 09:36:35;;;;;;;3.10;2.90;;;24.90;99.90;;;;;;5075791;28;20207;-80
2023/09/03 09:39:06;;;;;;;2.72;2.63;;;24.90;99.90;;;;;;5076239;28;20203;-79
2023/09/03 09:41:37;;;;;;;2.70;2.60;;;25.10;99.90;;;;;;5087661;28;20171;-78
2023/09/03 09:44:08;;;;;;;2.65;2.55;;;25.10;99.90;;;;;;5079165;28;20179;-81
2023/09/03 09:46:34;;;;;;;3.38;2.80;;;25.10;99.90;;;;;;5075639;28;20159;-81
2023/09/03 09:49:01;;;;;;;3.17;2.97;;;25.20;99.90;;;;;;5062073;28;20173;-81
2023/09/03 09:51:28;;;;;;;2.95;2.75;;;25.20;99.90;;;;;;5099206;28;20174;-80
2023/09/03 09:54:01;;;;;;;2.85;2.75;;;25.20;99.90;;;;;;5077937;28;20167;-81
2023/09/03 09:56:28;;;;;;;3.95;2.72;;;25.20;99.90;;;;;;5087815;28;20179;-80
2023/09/03 09:58:54;;;;;;;2.85;2.75;;;25.30;99.90;;;;;;5060513;28;20202;-80
2023/09/03 10:01:20;;;;;;;3.10;2.90;;;25.40;99.90;;;;;;5058010;28;20175;-78
2023/09/03 10:03:47;;;;;;;2.95;2.78;;;25.50;99.90;;;;;;5076016;28;20175;-81
2023/09/03 10:06:14;;;;;;;3.28;3.08;;;25.60;99.90;;;;;;5076901;28;20171;-79
2023/09/03 10:08:42;;;;;;;3.08;2.67;;;25.70;99.90;;;;;;5074996;28;20175;-80
2023/09/03 10:11:08;;;;;;;2.92;2.80;;;25.70;99.90;;;;;;5074986;28;20181;-79
2023/09/03 10:13:34;;;;;;;3.55;3.30;;;25.70;99.90;;;;;;5074744;28;20246;-82
2023/09/03 10:16:05;;;;;;;3.08;2.85;;;25.80;99.90;;;;;;5074704;28;20171;-81
2023/09/03 10:18:35;;;;;;;3.15;2.70;;;25.70;99.90;;;;;;5074243;28;20227;-75
2023/09/03 10:21:05;;;;;;;3.05;2.95;;;25.60;99.90;;;;;;5074421;28;20178;-77
2023/09/03 10:23:39;;;;;;;3.13;2.97;;;25.50;99.90;;;;;;5074598;28;20222;-75
2023/09/03 10:26:06;;;;;;;3.30;3.10;;;25.50;99.90;;;;;;5074496;28;20159;-77
2023/09/03 10:28:36;;;;;;;2.72;2.60;;;25.60;99.90;;;;;;5074316;28;20528;-75
2023/09/03 10:31:03;;;;;;;3.20;3.00;;;25.60;99.90;;;;;;5074378;28;20167;-77
2023/09/03 10:33:28;;;;;;;3.08;2.85;;;25.70;99.90;;;;;;5069798;28;20700;-76
2023/09/03 10:36:13;;;;;;;3.00;2.70;;;25.70;99.90;;;;;;5072852;28;20183;-77
2023/09/03 10:38:40;;;;;;;2.90;2.70;;;25.60;99.90;;;;;;5074339;28;20270;-78
2023/09/03 10:41:23;;;;;;;3.13;3.00;;;25.60;99.90;;;;;;5074218;28;20183;-79
2023/09/03 10:43:54;;;;;;;3.40;3.20;;;25.50;99.90;;;;;;5074155;28;20250;-77
2023/09/03 10:46:26;;;;;;;3.42;3.22;;;25.20;99.90;;;;;;5074119;28;20634;-81
2023/09/03 10:48:57;;;;;;;3.17;2.97;;;25.10;99.90;;;;;;5073979;28;20167;-76
2023/09/03 10:51:34;;;;;;;2.97;2.83;;;25.10;99.90;;;;;;5074200;28;20177;-75
2023/09/03 10:54:15;;;;;;;2.90;2.80;;;25.30;99.90;;;;;;5076762;28;20579;-76
2023/09/03 10:57:06;;;;;;;3.08;2.90;;;25.30;99.90;;;;;;5086396;28;20171;-79
2023/09/03 11:00:06;;;;;;;3.03;2.85;;;25.30;99.90;;;;;;5074041;28;20199;-75
2023/09/03 11:02:35;;;;;;;2.97;2.85;;;25.60;99.90;;;;;;5078737;28;20179;-81
2023/09/03 11:05:24;;;;;;;3.00;2.80;;;25.90;99.90;;;;;;5082191;28;20631;-80
2023/09/03 11:08:33;;;;;;;3.10;2.90;;;25.90;99.90;;;;;;5095179;28;20151;-81
2023/09/03 11:11:00;;;;;;;2.90;2.80;;;26.00;99.90;;;;;;5084411;28;20162;-80
2023/09/03 11:13:27;;;;;;;3.00;2.80;;;25.90;99.90;;;;;;5077788;28;20174;-82
2023/09/03 11:15:57;;;;;;;3.00;2.90;;;25.80;99.90;;;;;;5078444;28;20175;-78
2023/09/03 11:18:28;;;;;;;3.28;3.08;;;25.80;99.90;;;;;;5076144;28;20241;-82
2023/09/03 11:20:56;;;;;;;3.45;3.17;;;25.60;99.90;;;;;;5073527;28;20250;-83
2023/09/03 11:23:22;;;;;;;3.17;3.08;;;25.50;99.90;;;;;;5073844;28;20163;-78
2023/09/03 11:25:48;;;;;;;3.83;3.63;;;25.50;99.90;;;;;;5073636;28;20253;-80
2023/09/03 11:28:15;;;;;;;3.72;3.53;;;25.60;99.90;;;;;;5073390;28;20634;-80
2023/09/03 11:30:44;;;;;;;3.20;3.03;;;25.70;99.90;;;;;;5074070;28;20174;-81
2023/09/03 11:33:26;;;;;;;3.58;3.35;;;25.90;99.90;;;;;;5073341;28;20178;-81
2023/09/03 11:35:56;;;;;;;3.47;3.28;;;26.00;99.90;;;;;;5074163;28;20171;-79
2023/09/03 11:38:25;;;;;;;3.67;3.38;;;26.20;99.90;;;;;;5073722;28;20294;-81
2023/09/03 11:40:56;;;;;;;3.67;3.38;;;26.20;99.90;;;;;;5080157;28;20194;-80
2023/09/03 11:43:23;;;;;;;7.88;7.18;;;26.20;99.90;;;;;;5093671;28;20190;-77
2023/09/03 11:45:50;;;;;;;3.80;3.30;;;26.30;99.90;;;;;;5077718;28;20170;-77
2023/09/03 11:48:24;;;;;;;3.38;3.17;;;26.40;99.90;;;;;;5073945;28;20183;-80
2023/09/03 11:50:52;;;;;;;3.85;3.60;;;26.40;99.90;;;;;;5073473;28;20585;-79
2023/09/03 11:53:18;;;;;;;3.08;2.83;;;26.40;99.90;;;;;;5056406;28;20167;-82
2023/09/03 11:55:50;;;;;;;2.60;2.50;;;26.40;99.90;;;;;;5074349;28;20171;-81
2023/09/03 11:58:20;;;;;;;3.33;3.03;;;26.40;99.90;;;;;;5073258;28;20557;-80
2023/09/03 12:00:46;;;;;;;3.00;2.90;;;26.50;99.90;;;;;;5080200;28;20221;-80
2023/09/03 12:03:13;;;;;;;3.28;2.90;;;26.50;99.90;;;;;;5075428;28;20318;-82
2023/09/03 12:05:39;;;;;;;3.08;2.97;;;26.60;99.90;;;;;;5078271;28;20244;-80
2023/09/03 12:08:06;;;;;;;4.65;4.35;;;26.60;99.90;;;;;;5077134;28;20167;-82
2023/09/03 12:10:33;;;;;;;4.32;4.03;;;26.80;99.90;;;;;;5059135;28;20209;-81
2023/09/03 12:12:59;;;;;;;3.65;3.45;;;26.80;99.90;;;;;;5077724;28;20171;-81
2023/09/03 12:15:29;;;;;;;8.90;8.10;;;26.80;99.90;;;;;;5077164;28;20164;-81
2023/09/03 12:18:09;;;;;;;4.82;4.53;;;26.90;99.90;;;;;;5076735;28;20223;-80
2023/09/03 12:20:43;;;;;;;4.90;4.50;;;26.70;99.90;;;;;;5075821;28;20174;-81
2023/09/03 12:23:19;;;;;;;3.28;3.17;;;26.60;99.90;;;;;;5097742;28;20151;-82
2023/09/03 12:25:46;;;;;;;3.53;3.33;;;26.50;99.90;;;;;;5100925;28;20189;-81
2023/09/03 12:28:12;;;;;;;3.05;2.85;;;26.60;99.90;;;;;;5110498;28;20181;-80
2023/09/03 12:30:58;;;;;;;2.85;2.75;;;26.60;99.90;;;;;;5100582;28;20188;-81
2023/09/03 12:33:25;;;;;;;2.58;2.47;;;26.70;99.90;;;;;;5111743;28;20158;-79
2023/09/03 12:36:08;;;;;;;2.95;2.75;;;26.70;99.90;;;;;;5098206;28;20178;-79
2023/09/03 12:38:56;;;;;;;2.70;2.60;;;26.70;99.90;;;;;;5096621;28;20664;-80
2023/09/03 12:41:25;;;;;;;3.30;3.20;;;26.70;99.90;;;;;;5096826;28;20169;-82
2023/09/03 12:43:52;;;;;;;2.92;2.72;;;26.70;99.90;;;;;;5104378;28;20177;-78
2023/09/03 12:46:18;;;;;;;2.95;2.80;;;26.70;99.90;;;;;;5093543;28;20194;-80
2023/09/03 12:48:45;;;;;;;2.80;2.70;;;26.60;99.90;;;;;;5097151;28;20163;-81
2023/09/03 12:51:16;;;;;;;3.00;2.90;;;26.60;99.90;;;;;;5096851;28;20182;-79
2023/09/03 12:53:44;;;;;;;2.47;2.38;;;26.70;99.90;;;;;;5096886;28;20155;-80